Carbonita, Brazil
Current Conditions -  °F | °C
As of 8:00 PM on Friday 31 Oct 2014 (Local Time) from SBMK Reporting Station
Light Rain Light Rain  
Wind Chill: 73°   Ceiling: Unl
Heat Index: 73°   Visibility: 6mi
Dew Point: 68°   Wind: 5mph
Humidity: 83%   Direction: 190°S
Pressure: 30"   Gusts: NA
Location:  17.53°S, 43.01°W
Report Text: SBMK 312200Z 19004KT 9999 -RA SCT030 23/20 Q1016
Loading
Personal Weather Stations






























Interactive Weather Map
Tropical Storm Tracking
New forecast layout! Learn more

10-Day Weather Forecast

Advertisements
Track Severe Weather on mobile